Time;durP1;ratioP1;P1;durP2;ratioP2;P2;SDS_P1;SDS_P2;PMS_P1;PMS_P2;Temp;Humidity;BMP_temperature;BMP_pressure;BME280_temperature;BME280_humidity;BME280_pressure;Samples;Min_cycle;Max_cycle;Signal;HPM_P1;HPM_P2
2021/04/15 00:01:55;;;;;;;12.38;6.88;;;179.40;2252.80;;;;;;5097045;28;19915;-84
2021/04/15 00:04:22;;;;;;;14.75;7.07;;;179.20;2252.80;;;;;;5097131;28;20036;-84
2021/04/15 00:06:47;;;;;;;17.00;6.43;;;179.20;2252.80;;;;;;5097099;28;20024;-83
2021/04/15 00:09:17;;;;;;;;;;;179.30;2252.80;;;;;;5097822;28;20038;-84
2021/04/15 00:11:44;;;;;;;12.70;6.50;;;179.20;2252.80;;;;;;5094817;28;19903;-84
2021/04/15 00:14:11;;;;;;;12.88;7.00;;;154.40;2252.80;;;;;;5097227;28;20020;-83
2021/04/15 00:16:37;;;;;;;11.02;6.80;;;154.50;2252.80;;;;;;5097252;28;20016;-83
2021/04/15 00:19:03;;;;;;;;;;;154.40;2252.80;;;;;;5096798;28;20028;-84
2021/04/15 00:21:29;;;;;;;15.75;7.20;;;154.40;2252.80;;;;;;5096933;28;19904;-83
2021/04/15 00:23:54;;;;;;;;;;;154.40;2252.80;;;;;;5096969;28;20031;-84
2021/04/15 00:26:22;;;;;;;14.18;7.38;;;154.20;2252.80;;;;;;5097256;28;19903;-83
2021/04/15 00:28:49;;;;;;;15.15;7.68;;;153.90;2252.80;;;;;;5114638;28;20024;-84
2021/04/15 00:31:15;;;;;;;14.13;7.45;;;154.10;2252.80;;;;;;5096783;28;20020;-83
2021/04/15 00:33:41;;;;;;;;;;;154.00;2252.80;;;;;;5115389;28;20024;-83
2021/04/15 00:36:07;;;;;;;13.13;6.68;;;153.80;2252.80;;;;;;5095537;28;19968;-83
2021/04/15 00:38:33;;;;;;;15.48;7.40;;;153.80;2252.80;;;;;;5096697;28;20020;-83
2021/04/15 00:40:59;;;;;;;;;;;153.80;2252.80;;;;;;5096953;28;20023;-84
2021/04/15 00:43:29;;;;;;;15.35;8.15;;;153.70;2252.80;;;;;;5096441;28;19912;-84
2021/04/15 00:45:57;;;;;;;13.93;7.05;;;128.90;2252.80;;;;;;5093890;28;20028;-83
2021/04/15 00:48:41;;;;;;;14.10;7.78;;;128.80;2252.80;;;;;;5096095;28;20094;-83
2021/04/15 00:51:13;;;;;;;11.90;7.68;;;128.90;2252.80;;;;;;5114700;28;20042;-83
2021/04/15 00:53:48;;;;;;;15.52;7.55;;;128.80;2252.80;;;;;;5093568;28;20027;-83
2021/04/15 00:56:14;;;;;;;20.23;8.13;;;128.70;2252.80;;;;;;5094301;28;20020;-83
2021/04/15 00:58:41;;;;;;;15.50;7.70;;;128.70;2252.80;;;;;;5096157;28;20027;-83
2021/04/15 01:01:08;;;;;;;13.05;7.30;;;128.70;2252.80;;;;;;5096199;28;20030;-82
2021/04/15 01:03:35;;;;;;;14.80;7.18;;;128.60;2252.80;;;;;;5115864;28;20032;-83
2021/04/15 01:06:01;;;;;;;13.23;6.72;;;128.50;2252.80;;;;;;5097753;28;20111;-83
2021/04/15 01:08:27;;;;;;;;;;;128.60;2252.80;;;;;;5096725;28;20073;-82
2021/04/15 01:11:30;;;;;;;13.47;6.90;;;128.40;2252.80;;;;;;5096162;28;19908;-83
2021/04/15 01:14:05;;;;;;;11.98;6.75;;;128.50;2252.80;;;;;;5121527;27;20506;-82
2021/04/15 01:16:47;;;;;;;12.90;6.72;;;128.40;2252.80;;;;;;5116259;28;20024;-81
2021/04/15 01:19:34;;;;;;;15.40;7.20;;;128.40;2252.80;;;;;;5095078;28;20020;-82
2021/04/15 01:22:11;;;;;;;10.77;5.30;;;128.40;2252.80;;;;;;5120093;28;20016;-82
2021/04/15 01:25:19;;;;;;;13.15;6.75;;;128.30;2252.80;;;;;;5090883;28;20042;-82
2021/04/15 01:27:49;;;;;;;8.77;5.60;;;128.30;2252.80;;;;;;5099767;28;20474;-81
2021/04/15 01:30:35;;;;;;;13.02;6.28;;;128.20;2252.80;;;;;;5105847;28;20043;-81
2021/04/15 01:33:15;;;;;;;12.98;7.07;;;128.10;2252.80;;;;;;5104800;28;20076;-82
2021/04/15 01:36:00;;;;;;;13.10;7.03;;;128.10;2252.80;;;;;;5107386;28;20120;-82
2021/04/15 01:38:36;;;;;;;12.35;6.70;;;128.00;2252.80;;;;;;5109115;28;20024;-81
2021/04/15 01:41:14;;;;;;;10.48;6.35;;;128.10;2252.80;;;;;;5105329;28;20024;-81
2021/04/15 01:43:51;;;;;;;12.85;6.47;;;128.10;2252.80;;;;;;5108142;28;20032;-81
2021/04/15 01:46:19;;;;;;;8.90;4.60;;;128.00;2252.80;;;;;;5124927;28;20011;-81
2021/04/15 01:48:50;;;;;;;11.82;6.22;;;103.30;2227.20;;;;;;5124585;28;20122;-82
2021/04/15 01:51:22;;;;;;;13.43;6.65;;;103.30;2227.20;;;;;;5103717;28;20071;-81
2021/04/15 01:53:54;;;;;;;11.95;6.60;;;103.20;2227.20;;;;;;5103306;28;20050;-82
2021/04/15 01:56:33;;;;;;;12.63;5.97;;;103.10;2227.20;;;;;;5103304;28;20027;-81
2021/04/15 01:59:16;;;;;;;13.40;6.38;;;103.10;2227.20;;;;;;5103410;28;20030;-81
2021/04/15 02:01:46;;;;;;;15.43;6.90;;;103.20;2227.20;;;;;;5104414;28;20473;-81
2021/04/15 02:04:19;;;;;;;12.43;5.95;;;103.30;2227.20;;;;;;5104693;28;20043;-82
2021/04/15 02:06:59;;;;;;;13.07;7.28;;;103.20;2227.20;;;;;;5105763;28;20023;-81
2021/04/15 02:09:25;;;;;;;9.52;6.70;;;103.30;2227.20;;;;;;5104093;28;20075;-81
2021/04/15 02:11:57;;;;;;;;;;;103.30;2227.20;;;;;;5102997;28;20051;-82
2021/04/15 02:14:27;;;;;;;9.63;5.57;;;103.30;2227.20;;;;;;5102613;28;19904;-82
2021/04/15 02:16:55;;;;;;;11.02;5.68;;;103.20;2227.20;;;;;;5102843;28;20092;-82
2021/04/15 02:19:56;;;;;;;12.57;6.45;;;103.20;2227.20;;;;;;5103135;28;20107;-81
2021/04/15 02:22:29;;;;;;;8.95;5.43;;;103.20;2227.20;;;;;;5074926;28;20032;-81
2021/04/15 02:25:23;;;;;;;10.23;5.65;;;103.10;2227.20;;;;;;5056082;28;20033;-81
2021/04/15 02:28:15;;;;;;;13.70;6.15;;;103.00;2227.20;;;;;;5076274;28;20024;-81
2021/04/15 02:31:06;;;;;;;11.40;6.20;;;103.10;2227.20;;;;;;5047318;28;20033;-82
2021/04/15 02:33:42;;;;;;;13.13;6.18;;;103.10;2227.20;;;;;;5087873;28;20037;-82
2021/04/15 02:36:09;;;;;;;7.70;4.70;;;103.10;2227.20;;;;;;5053441;28;20040;-82
2021/04/15 02:38:44;;;;;;;10.38;5.78;;;103.10;2227.20;;;;;;5050597;28;20592;-82
2021/04/15 02:41:14;;;;;;;13.05;5.80;;;103.10;2227.20;;;;;;5056425;28;20489;-81
2021/04/15 02:44:06;;;;;;;9.88;5.47;;;103.10;2227.20;;;;;;5068934;28;20052;-81
2021/04/15 02:46:50;;;;;;;12.27;5.97;;;103.10;2227.20;;;;;;5078586;28;20029;-81
2021/04/15 02:49:19;;;;;;;11.57;6.38;;;103.10;2227.20;;;;;;5069195;28;20029;-81
2021/04/15 02:51:54;;;;;;;11.85;6.38;;;103.00;2227.20;;;;;;5053873;28;20037;-82
2021/04/15 02:54:31;;;;;;;9.38;5.63;;;103.00;2227.20;;;;;;5058663;28;20066;-81
2021/04/15 02:57:19;;;;;;;10.55;4.15;;;103.10;2227.20;;;;;;5073580;28;20021;-82
2021/04/15 03:00:05;;;;;;;15.00;6.43;;;102.90;2227.20;;;;;;5109352;28;20058;-81
2021/04/15 03:02:35;;;;;;;10.20;6.18;;;103.00;2227.20;;;;;;5115507;28;20024;-82
2021/04/15 03:05:22;;;;;;;13.15;6.13;;;103.00;2227.20;;;;;;5109678;28;20073;-81
2021/04/15 03:07:48;;;;;;;;;;;103.20;2227.20;;;;;;5109265;28;20043;-81
2021/04/15 03:10:19;;;;;;;8.27;5.10;;;103.00;2227.20;;;;;;5106706;28;19904;-82
2021/04/15 03:12:51;;;;;;;15.25;5.95;;;102.90;2227.20;;;;;;5107400;28;20330;-81
2021/04/15 03:15:25;;;;;;;10.50;5.15;;;103.00;2227.20;;;;;;5107533;28;20016;-82
2021/04/15 03:17:56;;;;;;;11.30;6.88;;;103.00;2227.20;;;;;;5106355;28;20089;-82
2021/04/15 03:20:26;;;;;;;12.18;5.68;;;102.90;2227.20;;;;;;5108602;28;20164;-82
2021/04/15 03:22:59;;;;;;;14.82;6.43;;;102.90;2227.20;;;;;;5105909;28;20028;-82
2021/04/15 03:25:26;;;;;;;11.50;6.30;;;102.90;2227.20;;;;;;5101990;28;20494;-82
2021/04/15 03:28:10;;;;;;;12.00;5.88;;;102.90;2227.20;;;;;;5107263;28;20085;-82
2021/04/15 03:31:11;;;;;;;13.38;6.22;;;102.90;2227.20;;;;;;5106730;28;20020;-82
2021/04/15 03:33:45;;;;;;;11.85;6.60;;;102.80;2227.20;;;;;;5066520;28;20037;-82
2021/04/15 03:36:27;;;;;;;10.35;6.35;;;102.80;2227.20;;;;;;5082104;28;20024;-82
2021/04/15 03:39:00;;;;;;;11.95;6.60;;;102.90;2227.20;;;;;;5068628;28;20029;-81
2021/04/15 03:41:42;;;;;;;11.98;5.95;;;103.00;2227.20;;;;;;5085662;28;20028;-82
2021/04/15 03:44:12;;;;;;;11.40;5.72;;;102.90;2227.20;;;;;;5076793;28;20072;-81
2021/04/15 03:46:51;;;;;;;16.23;6.72;;;102.90;2227.20;;;;;;5083966;28;20043;-82
2021/04/15 03:49:45;;;;;;;12.60;6.22;;;102.90;2227.20;;;;;;5084785;28;20032;-82
2021/04/15 03:52:40;;;;;;;8.60;5.40;;;102.80;2227.20;;;;;;5048168;28;20041;-81
2021/04/15 03:55:30;;;;;;;19.13;5.55;;;102.80;2227.20;;;;;;5065561;28;20041;-81
2021/04/15 03:58:07;;;;;;;12.48;7.15;;;102.80;2227.20;;;;;;5066771;28;20061;-82
2021/04/15 04:00:45;;;;;;;18.25;8.02;;;102.70;2227.20;;;;;;5067996;28;20025;-82
2021/04/15 04:03:16;;;;;;;20.45;10.10;;;102.80;2227.20;;;;;;5068555;28;20033;-83
2021/04/15 04:06:05;;;;;;;14.05;8.25;;;102.60;2227.20;;;;;;5033763;28;20044;-82
2021/04/15 04:08:47;;;;;;;15.52;8.15;;;102.70;2227.20;;;;;;5062696;28;20442;-82
2021/04/15 04:11:17;;;;;;;14.60;7.18;;;102.70;2227.20;;;;;;5089086;28;20031;-82
2021/04/15 04:14:05;;;;;;;17.02;7.38;;;102.70;2227.20;;;;;;5088255;28;20031;-82
2021/04/15 04:16:50;;;;;;;14.60;7.20;;;102.60;2227.20;;;;;;5091316;28;20013;-82
2021/04/15 04:19:28;;;;;;;11.80;6.50;;;102.80;2227.20;;;;;;5090384;28;20088;-82
2021/04/15 04:22:20;;;;;;;12.93;6.32;;;102.80;2227.20;;;;;;5089337;28;20046;-83
2021/04/15 04:25:29;;;;;;;19.52;8.02;;;102.80;2227.20;;;;;;5113374;28;20033;-82
2021/04/15 04:28:14;;;;;;;14.75;7.55;;;102.60;2227.20;;;;;;5089444;28;20023;-82
2021/04/15 04:31:06;;;;;;;10.80;6.65;;;102.70;2227.20;;;;;;5107001;28;20039;-82
2021/04/15 04:33:39;;;;;;;10.85;6.65;;;102.70;2227.20;;;;;;5032976;28;20512;-82
2021/04/15 04:36:07;;;;;;;12.93;7.18;;;102.70;2227.20;;;;;;5028664;28;20037;-82
2021/04/15 04:38:34;;;;;;;15.32;7.32;;;102.70;2227.20;;;;;;5043839;28;20034;-82
2021/04/15 04:41:09;;;;;;;18.23;7.97;;;102.70;2227.20;;;;;;5044510;28;20144;-81
2021/04/15 04:43:46;;;;;;;21.40;10.05;;;102.80;2227.20;;;;;;5044075;28;20121;-82
2021/04/15 04:46:19;;;;;;;25.48;11.98;;;102.80;2227.20;;;;;;5030500;28;20661;-82
2021/04/15 04:48:53;;;;;;;17.88;10.27;;;102.80;2227.20;;;;;;5045483;28;20022;-82
2021/04/15 04:51:21;;;;;;;22.65;11.07;;;102.80;2227.20;;;;;;5060875;28;20043;-82
2021/04/15 04:53:51;;;;;;;14.55;8.45;;;102.80;2227.20;;;;;;5048714;28;20017;-82
2021/04/15 04:56:31;;;;;;;14.15;7.72;;;102.80;2227.20;;;;;;5048209;28;20028;-82
2021/04/15 04:59:20;;;;;;;17.65;9.35;;;102.90;2227.20;;;;;;5064339;28;20029;-82
2021/04/15 05:01:46;;;;;;;18.35;8.77;;;102.90;2227.20;;;;;;5062769;28;20040;-83
2021/04/15 05:04:14;;;;;;;;;;;103.00;2227.20;;;;;;5048963;28;20037;-82
2021/04/15 05:06:43;;;;;;;20.95;9.60;;;102.90;2227.20;;;;;;5065539;28;19968;-82
2021/04/15 05:09:31;;;;;;;20.65;9.00;;;102.90;2227.20;;;;;;5066398;28;20112;-82
2021/04/15 05:11:57;;;;;;;18.10;8.38;;;102.90;2227.20;;;;;;5091308;28;20020;-82
2021/04/15 05:14:26;;;;;;;14.68;6.85;;;103.10;2227.20;;;;;;5107470;28;20060;-82
2021/04/15 05:16:55;;;;;;;19.45;8.85;;;103.10;2227.20;;;;;;5107559;28;20035;-82
2021/04/15 05:19:21;;;;;;;11.57;7.22;;;103.10;2227.20;;;;;;5104810;28;20024;-82
2021/04/15 05:21:48;;;;;;;10.77;6.25;;;103.10;2227.20;;;;;;5107276;28;20024;-81
2021/04/15 05:24:22;;;;;;;18.38;8.23;;;103.30;2227.20;;;;;;5103117;28;20115;-81
2021/04/15 05:26:50;;;;;;;15.45;6.90;;;103.30;2227.20;;;;;;5110937;28;20080;-82
2021/04/15 05:29:26;;;;;;;15.43;7.45;;;103.30;2227.20;;;;;;5114835;28;20016;-80
2021/04/15 05:31:54;;;;;;;13.27;7.20;;;128.10;2252.80;;;;;;5113908;28;20021;-83
2021/04/15 05:34:25;;;;;;;16.58;8.15;;;103.30;2227.20;;;;;;5106433;28;20036;-80
2021/04/15 05:36:56;;;;;;;14.77;8.13;;;128.20;2252.80;;;;;;5092304;28;20028;-79
2021/04/15 05:39:22;;;;;;;18.83;8.40;;;128.00;2252.80;;;;;;5095244;28;20028;-81
2021/04/15 05:41:57;;;;;;;15.45;7.95;;;128.20;2252.80;;;;;;5112511;28;20020;-82
2021/04/15 05:44:46;;;;;;;17.20;8.60;;;128.10;2252.80;;;;;;5104562;28;20031;-81
2021/04/15 05:47:37;;;;;;;29.42;15.20;;;128.10;2252.80;;;;;;5114742;28;20020;-83
2021/04/15 05:50:07;;;;;;;20.75;10.32;;;128.20;2252.80;;;;;;5066439;28;20029;-80
2021/04/15 05:52:47;;;;;;;19.85;10.00;;;128.40;2252.80;;;;;;5060199;28;20122;-82
2021/04/15 05:55:24;;;;;;;19.85;10.25;;;128.60;2252.80;;;;;;5067088;28;20045;-79
2021/04/15 05:57:53;;;;;;;17.77;8.73;;;128.50;2252.80;;;;;;5065653;28;20029;-82
2021/04/15 06:00:33;;;;;;;16.35;7.90;;;128.70;2252.80;;;;;;5082364;28;20123;-82
2021/04/15 06:03:19;;;;;;;25.00;8.65;;;128.70;2252.80;;;;;;5059199;28;20047;-81
2021/04/15 06:06:07;;;;;;;15.35;7.95;;;128.70;2252.80;;;;;;5054262;28;20040;-81
2021/04/15 06:08:37;;;;;;;15.23;8.27;;;128.90;2252.80;;;;;;5078267;28;20040;-82
2021/04/15 06:11:25;;;;;;;18.90;9.75;;;128.80;2252.80;;;;;;5071206;28;20107;-80
2021/04/15 06:14:03;;;;;;;17.60;8.88;;;153.60;2252.80;;;;;;5075125;28;20072;-79
2021/04/15 06:16:39;;;;;;;26.90;15.07;;;153.60;2252.80;;;;;;5070002;28;21003;-80
2021/04/15 06:19:16;;;;;;;15.32;9.75;;;153.70;2252.80;;;;;;5053965;28;20047;-82
2021/04/15 06:21:55;;;;;;;96.10;70.82;;;153.60;2227.20;;;;;;5054509;28;20086;-82
2021/04/15 06:24:29;;;;;;;23.27;13.85;;;153.80;2227.20;;;;;;5061056;28;20047;-81
2021/04/15 06:26:58;;;;;;;12.98;8.38;;;153.80;2252.80;;;;;;5069229;28;20054;-82
2021/04/15 06:29:44;;;;;;;14.50;8.02;;;153.80;2201.60;;;;;;5092424;28;20024;-83
2021/04/15 06:32:20;;;;;;;19.90;8.90;;;153.80;2252.80;;;;;;5091612;28;20021;-82
2021/04/15 06:34:46;;;;;;;18.95;8.68;;;154.00;2227.20;;;;;;5091894;28;20032;-82
2021/04/15 06:37:33;;;;;;;14.27;8.55;;;154.30;2201.60;;;;;;5092310;28;20024;-83
2021/04/15 06:40:01;;;;;;;;;;;154.30;2176.00;;;;;;5093044;28;20020;-83
2021/04/15 06:43:15;;;;;;;15.38;8.20;;;154.40;2150.40;;;;;;5078232;28;19973;-82
2021/04/15 06:45:58;;;;;;;18.33;10.35;;;154.40;2124.80;;;;;;5085328;28;20044;-80
2021/04/15 06:48:44;;;;;;;30.08;13.25;;;154.40;2124.80;;;;;;5079395;28;20056;-82
2021/04/15 06:51:36;;;;;;;18.48;9.15;;;154.40;2176.00;;;;;;5094140;28;20052;-77
2021/04/15 06:54:29;;;;;;;16.45;8.95;;;154.50;2150.40;;;;;;5030519;28;20046;-84
2021/04/15 06:56:58;;;;;;;12.30;7.78;;;179.30;2150.40;;;;;;5018882;28;20028;-81
2021/04/15 06:59:32;;;;;;;13.68;8.23;;;179.20;2124.80;;;;;;5030581;28;20033;-85
2021/04/15 07:02:15;;;;;;;13.73;7.85;;;179.40;2124.80;;;;;;5030865;28;20112;-86
2021/04/15 07:04:48;;;;;;;19.15;9.05;;;179.50;2150.40;;;;;;5030642;28;20045;-87
2021/04/15 07:07:22;;;;;;;17.45;8.95;;;179.40;2150.40;;;;;;5014513;28;20033;-86
2021/04/15 07:10:26;;;;;;;13.45;8.75;;;179.50;2150.40;;;;;;5024163;28;20022;-84
2021/04/15 07:13:24;;;;;;;19.15;9.07;;;179.60;2176.00;;;;;;4979088;28;20030;-84
2021/04/15 07:16:17;;;;;;;14.93;8.32;;;179.50;2150.40;;;;;;4959568;28;20480;-85
2021/04/15 07:19:03;;;;;;;16.77;8.88;;;179.70;2150.40;;;;;;4978815;28;20558;-80
2021/04/15 07:21:41;;;;;;;18.33;10.98;;;179.70;2124.80;;;;;;4979736;28;20054;-85
2021/04/15 07:24:24;;;;;;;15.48;9.88;;;179.80;2124.80;;;;;;4979406;28;20050;-82
2021/04/15 07:27:04;;;;;;;18.98;11.77;;;179.80;2124.80;;;;;;4972646;28;20473;-84
2021/04/15 07:29:53;;;;;;;22.02;11.90;;;179.80;2150.40;;;;;;4984985;28;20047;-82
2021/04/15 07:32:47;;;;;;;18.23;10.50;;;180.00;2150.40;;;;;;5036360;28;20082;-79
2021/04/15 07:35:50;;;;;;;18.08;11.07;;;179.90;2099.20;;;;;;5036206;28;20025;-78
2021/04/15 07:38:27;;;;;;;17.25;10.20;;;180.10;2099.20;;;;;;5053340;28;20099;-80
2021/04/15 07:41:21;;;;;;;15.48;9.32;;;180.00;2099.20;;;;;;5052900;28;20025;-80
2021/04/15 07:44:05;;;;;;;21.42;10.48;;;180.00;2048.00;;;;;;5036748;28;20037;-83
2021/04/15 07:46:44;;;;;;;17.75;10.32;;;180.10;2048.00;;;;;;5039490;28;20072;-83
2021/04/15 07:49:34;;;;;;;20.33;10.68;;;204.80;2099.20;;;;;;5061179;28;20032;-83
2021/04/15 07:52:32;;;;;;;21.70;10.18;;;180.10;2073.60;;;;;;5106458;28;20032;-84
2021/04/15 07:55:16;;;;;;;19.50;11.13;;;205.00;2048.00;;;;;;5116126;28;20059;-85
2021/04/15 07:58:04;;;;;;;22.50;11.52;;;204.90;2099.20;;;;;;5116114;28;20024;-80
2021/04/15 08:00:44;;;;;;;20.67;13.80;;;205.00;2073.60;;;;;;5115612;28;20464;-84
2021/04/15 08:03:28;;;;;;;24.13;15.10;;;205.00;2048.00;;;;;;5097896;28;20055;-85
2021/04/15 08:06:15;;;;;;;19.45;11.45;;;205.00;2022.40;;;;;;5116104;28;20110;-81
2021/04/15 08:08:55;;;;;;;15.63;9.63;;;204.90;2048.00;;;;;;5102115;28;20022;-84
2021/04/15 08:11:33;;;;;;;22.48;12.30;;;204.90;2099.20;;;;;;5096868;28;20032;-79
2021/04/15 08:14:10;;;;;;;24.85;15.43;;;204.90;2048.00;;;;;;5115290;28;20020;-80
2021/04/15 08:16:57;;;;;;;24.27;12.93;;;205.10;2073.60;;;;;;5094900;28;20031;-80
2021/04/15 08:19:41;;;;;;;16.05;11.55;;;205.00;2048.00;;;;;;5113792;28;20046;-81
2021/04/15 08:22:31;;;;;;;21.60;12.13;;;204.80;2048.00;;;;;;5095943;28;20445;-79
2021/04/15 08:24:58;;;;;;;24.15;13.82;;;204.80;2048.00;;;;;;5112493;28;20040;-85
2021/04/15 08:27:58;;;;;;;23.27;15.32;;;204.80;2073.60;;;;;;5097172;28;20019;-84
2021/04/15 08:30:32;;;;;;;27.25;19.27;;;205.00;2048.00;;;;;;5092709;28;20028;-79
2021/04/15 08:33:22;;;;;;;30.52;20.67;;;205.00;2073.60;;;;;;5104738;28;20069;-81
2021/04/15 08:36:11;;;;;;;24.90;17.25;;;205.10;2048.00;;;;;;5102654;28;20020;-83
2021/04/15 08:39:10;;;;;;;22.92;13.10;;;205.10;2048.00;;;;;;5096846;28;20031;-83
2021/04/15 08:41:50;;;;;;;20.05;14.07;;;205.00;2048.00;;;;;;5084286;28;20118;-83
2021/04/15 08:44:46;;;;;;;17.33;12.88;;;205.00;2048.00;;;;;;5115148;28;20057;-84
2021/04/15 08:47:30;;;;;;;19.10;12.68;;;205.20;1971.20;;;;;;5094357;28;20028;-84
2021/04/15 08:50:14;;;;;;;21.50;14.35;;;205.20;1996.80;;;;;;5095654;28;20031;-84
2021/04/15 08:52:45;;;;;;;19.23;12.30;;;205.20;2022.40;;;;;;5092413;28;20390;-82
2021/04/15 08:55:35;;;;;;;34.53;19.75;;;205.30;1945.60;;;;;;5095747;28;20108;-82
2021/04/15 08:58:32;;;;;;;23.13;13.73;;;205.40;1971.20;;;;;;5110064;28;20104;-81
2021/04/15 09:01:03;;;;;;;21.25;13.55;;;205.40;1945.60;;;;;;5107258;28;20446;-80
2021/04/15 09:03:42;;;;;;;20.20;14.25;;;205.50;1996.80;;;;;;5101763;28;20012;-83
2021/04/15 09:06:25;;;;;;;26.55;14.35;;;205.30;1945.60;;;;;;5093020;28;20036;-83
2021/04/15 09:09:20;;;;;;;22.98;14.25;;;205.30;1945.60;;;;;;5087542;28;20050;-79
2021/04/15 09:12:03;;;;;;;21.73;13.48;;;205.50;1971.20;;;;;;5093603;28;20576;-80
2021/04/15 09:14:53;;;;;;;38.40;21.05;;;205.70;1945.60;;;;;;5092606;28;20027;-79
2021/04/15 09:17:31;;;;;;;38.75;20.88;;;230.40;1971.20;;;;;;5083583;28;20372;-79
2021/04/15 09:20:08;;;;;;;22.45;14.73;;;205.70;1945.60;;;;;;5095579;28;20032;-79
2021/04/15 09:23:11;;;;;;;28.23;18.80;;;205.50;1945.60;;;;;;5096111;28;20511;-84
2021/04/15 09:25:52;;;;;;;22.48;16.50;;;205.50;1971.20;;;;;;5081864;28;20027;-83
2021/04/15 09:28:27;;;;;;;22.52;16.10;;;205.70;1971.20;;;;;;5096236;28;20084;-83
2021/04/15 09:31:17;;;;;;;23.73;16.75;;;205.70;1920.00;;;;;;5115141;28;20552;-79
2021/04/15 09:34:16;;;;;;;25.40;16.92;;;230.50;1920.00;;;;;;5096129;28;20385;-81
2021/04/15 09:37:06;;;;;;;21.23;14.18;;;230.50;1971.20;;;;;;5113399;28;20108;-82
2021/04/15 09:39:49;;;;;;;26.33;13.98;;;230.40;1894.40;;;;;;5104860;28;20059;-82
2021/04/15 09:42:32;;;;;;;21.95;14.30;;;205.70;1894.40;;;;;;5094268;28;20034;-76
2021/04/15 09:45:18;;;;;;;20.30;14.65;;;205.70;1894.40;;;;;;5094448;28;20031;-80
2021/04/15 09:47:48;;;;;;;20.38;12.35;;;230.40;1894.40;;;;;;5096246;28;20048;-81
2021/04/15 09:50:23;;;;;;;24.63;15.05;;;230.40;1945.60;;;;;;5094183;28;20075;-79
2021/04/15 09:53:04;;;;;;;21.53;14.37;;;205.70;1971.20;;;;;;5104298;28;20059;-85
2021/04/15 09:55:30;;;;;;;21.13;14.73;;;230.40;1945.60;;;;;;5097212;28;20016;-84
2021/04/15 09:58:03;;;;;;;;;;;205.70;1920.00;;;;;;5106789;28;20484;-83
2021/04/15 10:00:41;;;;;;;21.75;14.95;;;205.60;1945.60;;;;;;5095017;28;19908;-82
2021/04/15 10:03:16;;;;;;;22.05;16.13;;;205.60;1920.00;;;;;;5095436;28;20051;-82
2021/04/15 10:05:51;;;;;;;23.85;16.85;;;230.70;1894.40;;;;;;5092432;28;20036;-84
2021/04/15 10:08:56;;;;;;;25.10;15.60;;;230.70;1868.80;;;;;;5091392;28;20027;-82
2021/04/15 10:11:50;;;;;;;22.50;15.40;;;230.60;1843.20;;;;;;5067616;28;20024;-78
2021/04/15 10:14:43;;;;;;;31.83;18.42;;;230.70;1843.20;;;;;;5107238;28;20071;-85
2021/04/15 10:17:21;;;;;;;39.60;23.23;;;256.00;1766.40;;;;;;5105334;28;20027;-77
2021/04/15 10:20:08;;;;;;;20.38;12.60;;;256.50;1740.80;;;;;;5110245;28;20016;-82
2021/04/15 10:22:58;;;;;;;28.38;17.42;;;231.30;1740.80;;;;;;5082836;28;20031;-82
2021/04/15 10:25:29;;;;;;;19.27;13.98;;;256.30;1740.80;;;;;;5088427;28;20036;-81
2021/04/15 10:28:38;;;;;;;20.42;13.57;;;256.80;1638.40;;;;;;5093256;28;20144;-83
2021/04/15 10:31:46;;;;;;;20.83;14.30;;;256.70;1715.20;;;;;;5024694;28;20030;-79
2021/04/15 10:34:43;;;;;;;20.30;14.43;;;256.90;1689.60;;;;;;5013548;28;20592;-85
2021/04/15 10:37:15;;;;;;;21.85;14.48;;;281.70;1638.40;;;;;;5012386;28;20041;-83
2021/04/15 10:40:03;;;;;;;22.52;13.82;;;256.70;1638.40;;;;;;5021170;28;20029;-82
2021/04/15 10:42:43;;;;;;;18.10;11.93;;;256.30;1612.80;;;;;;5033495;28;20090;-82
2021/04/15 10:45:18;;;;;;;19.35;11.77;;;256.00;1689.60;;;;;;5041691;28;20033;-83
2021/04/15 10:48:02;;;;;;;14.82;10.75;;;256.00;1664.00;;;;;;5024316;28;20056;-85
2021/04/15 10:51:04;;;;;;;15.82;8.88;;;256.00;1664.00;;;;;;5031622;28;20103;-82
2021/04/15 10:53:48;;;;;;;18.88;11.40;;;231.10;1689.60;;;;;;5013371;28;20040;-82
2021/04/15 10:56:25;;;;;;;17.48;10.82;;;230.80;1740.80;;;;;;5019571;28;20029;-86
2021/04/15 10:59:06;;;;;;;14.13;10.02;;;230.80;1715.20;;;;;;5021270;28;20036;-82
2021/04/15 11:01:33;;;;;;;15.63;10.70;;;230.70;1766.40;;;;;;5010879;28;20045;-85
2021/04/15 11:04:22;;;;;;;16.80;10.35;;;230.70;1766.40;;;;;;5017046;28;20107;-84
2021/04/15 11:07:08;;;;;;;18.27;12.15;;;230.70;1792.00;;;;;;5018478;28;20357;-85
2021/04/15 11:09:40;;;;;;;21.23;12.93;;;230.60;1817.60;;;;;;5075740;28;20051;-85
2021/04/15 11:12:15;;;;;;;16.48;10.95;;;230.60;1868.80;;;;;;5068500;28;20036;-85
2021/04/15 11:14:44;;;;;;;16.15;10.80;;;230.50;1843.20;;;;;;5068115;28;20485;-86
2021/04/15 11:17:43;;;;;;;17.13;11.45;;;230.70;1868.80;;;;;;5078703;28;20032;-85
2021/04/15 11:20:15;;;;;;;21.95;12.68;;;231.00;1792.00;;;;;;5075440;28;20052;-84
2021/04/15 11:23:02;;;;;;;16.45;10.77;;;231.20;1740.80;;;;;;5077042;28;20048;-85
2021/04/15 11:25:40;;;;;;;16.60;10.20;;;231.10;1740.80;;;;;;5084953;28;20038;-83
2021/04/15 11:28:18;;;;;;;27.52;16.48;;;231.00;1689.60;;;;;;5089312;28;20012;-82
2021/04/15 11:30:48;;;;;;;28.95;16.80;;;230.90;1766.40;;;;;;5089547;28;20097;-85
2021/04/15 11:33:34;;;;;;;17.98;10.60;;;231.00;1740.80;;;;;;5087541;28;20035;-83
2021/04/15 11:36:16;;;;;;;23.02;13.35;;;231.10;1664.00;;;;;;5071549;28;20115;-84
2021/04/15 11:38:45;;;;;;;17.05;9.95;;;231.20;1664.00;;;;;;5073673;28;20031;-85
2021/04/15 11:41:29;;;;;;;16.77;11.35;;;231.20;1664.00;;;;;;5077694;28;20093;-83
2021/04/15 11:44:11;;;;;;;13.70;9.00;;;231.20;1689.60;;;;;;5077678;28;20028;-85
2021/04/15 11:46:45;;;;;;;22.48;14.43;;;231.20;1715.20;;;;;;5064735;28;20042;-86
2021/04/15 11:49:23;;;;;;;14.55;8.90;;;231.10;1740.80;;;;;;5077787;28;20111;-81
2021/04/15 11:52:13;;;;;;;15.48;10.40;;;231.00;1689.60;;;;;;5103047;28;20079;-82
2021/04/15 11:54:45;;;;;;;20.98;10.07;;;231.00;1715.20;;;;;;5083559;28;20055;-84
2021/04/15 11:57:20;;;;;;;18.30;11.35;;;230.90;1792.00;;;;;;5087955;28;20468;-85
2021/04/15 12:00:01;;;;;;;11.20;8.75;;;231.00;1792.00;;;;;;5111883;28;20027;-86
2021/04/15 12:02:50;;;;;;;13.35;9.00;;;231.20;1689.60;;;;;;5097911;28;20030;-83
2021/04/15 12:05:33;;;;;;;15.18;9.63;;;231.00;1689.60;;;;;;5089916;28;20120;-82
2021/04/15 12:08:22;;;;;;;11.80;7.90;;;231.30;1689.60;;;;;;5122524;27;20342;-82
2021/04/15 12:11:00;;;;;;;11.48;8.48;;;256.80;1587.20;;;;;;5117729;27;20156;-83
2021/04/15 12:13:38;;;;;;;10.15;7.88;;;281.70;1612.80;;;;;;5100601;28;20016;-80
2021/04/15 12:16:39;;;;;;;10.32;6.60;;;282.10;1587.20;;;;;;5115486;28;20024;-81
2021/04/15 12:19:24;;;;;;;18.55;8.88;;;281.70;1561.60;;;;;;5013192;28;20026;-84
2021/04/15 12:21:59;;;;;;;18.85;11.75;;;281.60;1587.20;;;;;;5027909;28;20569;-83
2021/04/15 12:24:39;;;;;;;19.85;10.48;;;282.00;1561.60;;;;;;5027701;28;20136;-85
2021/04/15 12:27:24;;;;;;;17.38;10.13;;;282.20;1510.40;;;;;;5033001;28;20040;-82
2021/04/15 12:30:08;;;;;;;15.73;8.32;;;282.10;1587.20;;;;;;5020240;28;20030;-82
2021/04/15 12:32:43;;;;;;;11.70;7.70;;;282.10;1561.60;;;;;;5012458;28;20080;-81
2021/04/15 12:35:26;;;;;;;12.85;8.05;;;307.20;1536.00;;;;;;5012330;28;20080;-82
2021/04/15 12:37:57;;;;;;;14.85;7.38;;;307.20;1510.40;;;;;;5011971;28;20034;-80
2021/04/15 12:40:27;;;;;;;16.90;10.05;;;282.50;1510.40;;;;;;5011855;28;20026;-80
2021/04/15 12:43:14;;;;;;;30.40;12.15;;;282.10;1587.20;;;;;;5011756;28;20519;-82
2021/04/15 12:45:47;;;;;;;12.65;7.80;;;282.00;1612.80;;;;;;5011029;28;20038;-77
2021/04/15 12:48:28;;;;;;;12.48;6.80;;;281.70;1561.60;;;;;;4994948;28;20121;-78
2021/04/15 12:50:54;;;;;;;12.73;7.57;;;281.70;1510.40;;;;;;5011278;28;20057;-81
2021/04/15 12:53:20;;;;;;;10.70;7.68;;;282.10;1484.80;;;;;;4995032;28;20524;-79
2021/04/15 12:55:50;;;;;;;10.68;6.75;;;282.40;1510.40;;;;;;5056190;28;20028;-79
2021/04/15 12:58:18;;;;;;;11.02;7.43;;;307.20;1459.20;;;;;;5093178;28;20016;-79
2021/04/15 13:00:47;;;;;;;10.30;6.07;;;307.30;1536.00;;;;;;5093818;28;20074;-79
2021/04/15 13:03:21;;;;;;;8.52;6.70;;;307.30;1484.80;;;;;;5093473;28;20028;-80
2021/04/15 13:05:57;;;;;;;12.73;8.13;;;307.60;1459.20;;;;;;5069232;28;20382;-79
2021/04/15 13:08:34;;;;;;;8.52;6.30;;;307.40;1510.40;;;;;;5074813;28;20016;-80